Time;durP1;ratioP1;P1;durP2;ratioP2;P2;SDS_P1;SDS_P2;PMS_P1;PMS_P2;Temp;Humidity;BMP_temperature;BMP_pressure;BME280_temperature;BME280_humidity;BME280_pressure;Samples;Min_cycle;Max_cycle;Signal;HPM_P1;HPM_P2
2023/03/14 00:00:35;;;;;;;19.00;4.32;;;10.30;99.90;;;;;;6173599;23;20057;-83
2023/03/14 00:03:01;;;;;;;19.00;4.57;;;10.30;99.90;;;;;;6162833;23;20430;-81
2023/03/14 00:05:27;;;;;;;21.23;4.95;;;11.80;99.90;;;;;;6149587;23;20021;-82
2023/03/14 00:12:39;;;;;;;18.20;4.18;;;10.40;99.90;;;;;;6155752;23;20067;-82
2023/03/14 00:15:06;;;;;;;19.80;4.50;;;10.60;99.90;;;;;;6129053;23;20028;-83
2023/03/14 00:17:35;;;;;;;14.05;4.47;;;10.50;99.90;;;;;;6131063;23;20017;-82
2023/03/14 00:20:08;;;;;;;18.92;4.70;;;11.90;99.90;;;;;;6162723;23;20070;-82
2023/03/14 00:22:41;;;;;;;18.67;5.22;;;10.40;99.90;;;;;;6155503;23;20021;-82
2023/03/14 00:25:19;;;;;;;17.13;4.50;;;11.70;99.90;;;;;;6129379;23;20046;-82
2023/03/14 00:31:28;;;;;;;17.20;4.77;;;9.90;99.90;;;;;;6129576;23;20017;-82
2023/03/14 00:34:03;;;;;;;15.83;4.73;;;11.70;99.90;;;;;;6129741;23;20450;-82
2023/03/14 00:36:40;;;;;;;16.40;5.00;;;11.80;99.90;;;;;;6129779;23;20060;-84
2023/03/14 00:39:16;;;;;;;20.53;5.27;;;11.70;99.90;;;;;;6129535;23;20018;-82
2023/03/14 00:41:54;;;;;;;16.47;5.23;;;10.20;99.90;;;;;;6128303;23;20017;-82
2023/03/14 00:44:38;;;;;;;17.73;5.83;;;11.70;99.90;;;;;;6129646;23;20041;-81
2023/03/14 00:47:03;;;;;;;17.55;5.90;;;10.10;99.90;;;;;;6151223;23;20401;-81
2023/03/14 00:49:47;;;;;;;18.30;6.30;;;9.80;99.90;;;;;;6130556;23;20018;-81
2023/03/14 00:52:13;;;;;;;;;;;10.90;99.90;;;;;;6133446;23;20009;-81
2023/03/14 00:54:54;;;;;;;18.77;6.40;;;10.80;99.90;;;;;;6131701;23;20441;-81
2023/03/14 00:57:42;;;;;;;18.30;6.68;;;11.20;99.90;;;;;;6128758;23;20017;-82
2023/03/14 01:00:26;;;;;;;15.80;5.65;;;9.80;99.90;;;;;;6155749;23;20024;-82
2023/03/14 01:03:17;;;;;;;16.10;5.78;;;11.00;99.90;;;;;;6128645;23;20076;-82
2023/03/14 01:05:51;;;;;;;15.90;5.43;;;8.90;99.90;;;;;;6155174;23;20080;-82
2023/03/14 01:08:22;;;;;;;19.40;5.88;;;9.80;99.90;;;;;;6155656;23;20100;-83
2023/03/14 01:11:08;;;;;;;19.75;6.75;;;9.80;99.90;;;;;;6126885;23;20504;-83
2023/03/14 01:38:27;;;;;;;20.33;6.82;;;9.20;99.90;;;;;;6154068;23;20068;-86
2023/03/14 01:42:01;;;;;;;;;;;;;;;;;;;;;
2023/03/14 01:45:20;;;;;;;23.05;7.22;;;9.00;99.90;;;;;;6063904;23;20457;-86
2023/03/14 01:47:51;;;;;;;23.65;7.40;;;8.10;99.90;;;;;;6124357;23;20076;-86
2023/03/14 01:50:23;;;;;;;21.38;6.60;;;8.90;99.90;;;;;;6129091;23;20045;-86
2023/03/14 01:53:24;;;;;;;18.27;6.38;;;9.80;99.90;;;;;;6089992;23;20029;-86
2023/03/14 01:56:08;;;;;;;18.25;6.15;;;9.80;99.90;;;;;;6129122;23;20129;-86
2023/03/14 01:58:39;;;;;;;20.90;6.82;;;9.00;99.90;;;;;;6128241;23;20396;-86
2023/03/14 02:01:09;;;;;;;21.33;6.15;;;10.30;99.90;;;;;;6155508;23;20091;-86
2023/03/14 02:04:05;;;;;;;18.38;6.28;;;9.80;99.90;;;;;;6128295;23;20080;-86
2023/03/14 02:07:08;;;;;;;18.58;5.43;;;9.10;99.90;;;;;;6129631;23;20026;-86
2023/03/14 02:09:42;;;;;;;21.85;5.75;;;8.30;99.90;;;;;;6130490;23;20092;-85
2023/03/14 02:12:14;;;;;;;;;;;9.10;99.90;;;;;;6156247;23;20446;-86
2023/03/14 02:14:47;;;;;;;16.98;5.18;;;9.30;99.90;;;;;;6134284;23;19900;-86
2023/03/14 02:26:29;;;;;;;21.13;5.53;;;9.10;99.90;;;;;;6163509;23;20026;-85
2023/03/14 02:42:08;;;;;;;22.98;5.20;;;8.60;99.90;;;;;;6163960;23;20060;-84
2023/03/14 02:45:25;;;;;;;13.82;3.85;;;10.60;99.90;;;;;;6156144;23;20460;-85
2023/03/14 02:47:59;;;;;;;16.95;4.35;;;8.50;99.90;;;;;;6129854;23;20029;-85
2023/03/14 02:50:29;;;;;;;15.77;3.90;;;9.30;99.90;;;;;;6156635;23;20010;-85
2023/03/14 02:52:54;;;;;;;14.35;3.63;;;8.70;99.90;;;;;;6130322;23;20014;-84
2023/03/14 02:55:25;;;;;;;13.48;3.38;;;10.30;99.90;;;;;;6156381;23;20060;-85
2023/03/14 02:57:51;;;;;;;13.38;3.50;;;9.10;99.90;;;;;;6131497;23;20013;-85
2023/03/14 03:00:23;;;;;;;13.18;3.50;;;10.30;99.90;;;;;;6130448;23;20014;-85
2023/03/14 03:02:54;;;;;;;12.17;3.40;;;9.30;99.90;;;;;;6168354;23;20005;-85
2023/03/14 03:05:22;;;;;;;14.73;3.90;;;10.00;99.90;;;;;;6183237;23;20028;-85
2023/03/14 03:07:54;;;;;;;16.60;3.53;;;9.20;99.90;;;;;;6136023;23;20400;-85
2023/03/14 03:10:45;;;;;;;14.65;3.75;;;8.90;99.90;;;;;;6159866;23;20326;-85
2023/03/14 03:13:13;;;;;;;13.20;3.65;;;9.00;99.90;;;;;;6042736;23;20105;-85
2023/03/14 03:15:46;;;;;;;13.10;3.70;;;10.10;99.90;;;;;;6065564;23;20388;-85
2023/03/14 03:18:26;;;;;;;12.18;3.40;;;10.10;99.90;;;;;;6042596;23;20491;-85
2023/03/14 03:20:54;;;;;;;14.27;4.05;;;9.10;99.90;;;;;;6042360;23;20069;-84
2023/03/14 03:23:26;;;;;;;12.18;3.35;;;8.00;99.90;;;;;;6150867;23;20393;-85
2023/03/14 03:25:52;;;;;;;12.70;3.50;;;9.00;99.90;;;;;;6130773;23;20036;-84
2023/03/14 03:39:43;;;;;;;14.70;4.22;;;8.80;99.90;;;;;;6156091;23;20024;-84
2023/03/14 03:42:10;;;;;;;12.23;3.67;;;8.80;99.90;;;;;;6130616;23;20027;-84
2023/03/14 03:45:26;;;;;;;13.90;3.72;;;9.90;99.90;;;;;;6132071;23;20025;-84
2023/03/14 03:47:56;;;;;;;14.03;3.87;;;8.60;99.90;;;;;;6132815;23;20485;-85
2023/03/14 03:50:25;;;;;;;14.73;4.25;;;10.40;99.90;;;;;;6156823;23;20017;-85
2023/03/14 03:52:56;;;;;;;13.23;3.60;;;9.80;99.90;;;;;;6161109;23;20041;-85
2023/03/14 03:55:27;;;;;;;12.50;3.20;;;10.10;99.90;;;;;;6131434;23;20013;-84
2023/03/14 03:57:59;;;;;;;13.80;3.57;;;9.60;99.90;;;;;;6156915;23;20018;-84
2023/03/14 04:00:27;;;;;;;17.37;3.93;;;9.00;99.90;;;;;;6130302;23;20021;-85
2023/03/14 04:03:08;;;;;;;18.17;4.17;;;10.60;99.90;;;;;;6130703;23;20029;-84
2023/03/14 04:05:40;;;;;;;14.95;3.97;;;9.20;99.90;;;;;;6128637;23;20461;-84
2023/03/14 04:08:11;;;;;;;15.33;3.57;;;8.70;99.90;;;;;;6129847;23;20017;-84
2023/03/14 04:16:58;;;;;;;15.55;3.30;;;8.70;99.90;;;;;;6012991;23;20106;-85
2023/03/14 04:19:26;;;;;;;16.00;3.60;;;10.00;99.90;;;;;;6012006;23;20082;-84
2023/03/14 04:21:52;;;;;;;10.03;3.23;;;9.40;99.90;;;;;;6013385;23;20565;-85
2023/03/14 04:24:18;;;;;;;13.90;3.97;;;9.50;99.90;;;;;;6012871;23;20023;-84
2023/03/14 04:26:43;;;;;;;14.93;4.50;;;8.70;99.90;;;;;;6035781;23;20046;-84
2023/03/14 04:29:09;;;;;;;16.20;4.83;;;9.90;99.90;;;;;;6013449;23;20045;-84
2023/03/14 04:31:34;;;;;;;17.40;4.83;;;9.70;99.90;;;;;;6036580;23;20551;-84
2023/03/14 04:34:00;;;;;;;11.73;4.80;;;8.40;99.90;;;;;;6012824;23;20015;-85
2023/03/14 04:36:26;;;;;;;13.77;4.30;;;9.90;99.90;;;;;;6112578;23;20025;-84
2023/03/14 04:39:01;;;;;;;13.43;4.70;;;10.30;99.90;;;;;;6156293;23;20442;-83
2023/03/14 04:45:20;;;;;;;13.57;4.70;;;8.60;99.90;;;;;;6155624;23;20461;-83
2023/03/14 04:47:51;;;;;;;12.50;4.60;;;9.50;99.90;;;;;;6128703;23;20096;-84
2023/03/14 04:50:24;;;;;;;15.63;5.43;;;8.90;99.90;;;;;;6156084;23;20526;-85
2023/03/14 04:53:35;;;;;;;12.88;4.80;;;8.70;99.90;;;;;;6129577;23;20411;-85
2023/03/14 04:56:21;;;;;;;11.17;4.97;;;8.80;99.90;;;;;;6154899;23;20060;-85
2023/03/14 04:58:50;;;;;;;14.67;4.93;;;9.40;99.90;;;;;;6155026;23;20442;-85
2023/03/14 05:01:25;;;;;;;11.87;4.77;;;10.50;99.90;;;;;;6128246;23;20052;-85
2023/03/14 05:03:57;;;;;;;16.80;5.13;;;9.80;99.90;;;;;;6155115;23;20020;-85
2023/03/14 05:06:31;;;;;;;12.80;4.33;;;10.10;99.90;;;;;;6154042;23;20017;-85
2023/03/14 05:09:04;;;;;;;12.00;4.10;;;10.30;99.90;;;;;;6128318;23;20017;-85
2023/03/14 05:11:33;;;;;;;15.90;5.18;;;10.40;99.90;;;;;;6129202;23;20442;-85
2023/03/14 05:14:02;;;;;;;13.07;4.47;;;10.40;99.90;;;;;;6129318;23;20018;-85
2023/03/14 05:16:28;;;;;;;15.57;4.20;;;10.10;99.90;;;;;;6158255;23;20022;-85
2023/03/14 05:22:44;;;;;;;13.87;4.00;;;8.60;99.90;;;;;;6158449;23;20094;-85
2023/03/14 05:37:31;;;;;;;14.60;4.37;;;8.60;99.90;;;;;;6155011;23;20097;-83
2023/03/14 05:40:00;;;;;;;14.37;3.77;;;8.40;99.90;;;;;;6129025;23;20041;-84
2023/03/14 05:42:26;;;;;;;18.43;4.37;;;9.20;99.90;;;;;;6129582;23;20047;-84
2023/03/14 05:44:51;;;;;;;14.73;4.53;;;9.90;99.90;;;;;;6128504;23;20018;-84
2023/03/14 05:47:35;;;;;;;18.00;4.10;;;9.90;99.90;;;;;;6155493;23;20029;-84
2023/03/14 05:50:08;;;;;;;14.70;3.70;;;10.00;99.90;;;;;;6129396;23;20094;-84
2023/03/14 05:56:15;;;;;;;12.77;3.90;;;7.70;99.90;;;;;;6155374;23;20449;-84
2023/03/14 05:58:49;;;;;;;13.53;3.97;;;10.00;99.90;;;;;;6128174;23;20018;-83
2023/03/14 06:01:15;;;;;;;14.03;3.50;;;9.50;99.90;;;;;;6130239;23;20390;-84
2023/03/14 06:03:41;;;;;;;14.40;3.97;;;9.60;99.90;;;;;;6154613;23;20026;-83
2023/03/14 06:06:07;;;;;;;16.97;3.93;;;9.40;99.90;;;;;;6123687;23;20100;-84
2023/03/14 06:09:19;;;;;;;14.73;3.77;;;8.60;99.90;;;;;;6148737;23;20022;-84
2023/03/14 06:11:48;;;;;;;11.20;3.17;;;8.20;99.90;;;;;;6075114;23;20050;-83
2023/03/14 06:14:13;;;;;;;14.00;3.60;;;8.10;99.90;;;;;;6097133;23;20163;-83
2023/03/14 06:17:04;;;;;;;13.57;3.50;;;10.20;99.90;;;;;;6033637;23;20021;-84
2023/03/14 06:19:35;;;;;;;14.37;3.53;;;9.90;99.90;;;;;;6068705;23;20071;-84
2023/03/14 06:22:04;;;;;;;18.33;4.20;;;10.10;99.90;;;;;;6094647;23;20022;-84
2023/03/14 06:24:41;;;;;;;14.00;3.43;;;8.80;99.90;;;;;;6094054;23;20339;-83
2023/03/14 06:27:06;;;;;;;15.73;4.00;;;8.40;99.90;;;;;;6093393;23;20097;-84
2023/03/14 06:29:35;;;;;;;14.27;3.73;;;10.30;99.90;;;;;;6069408;23;20046;-84
2023/03/14 06:32:09;;;;;;;11.98;3.47;;;10.20;99.90;;;;;;6069968;23;20210;-85
2023/03/14 06:34:38;;;;;;;13.43;3.83;;;10.20;99.90;;;;;;6092956;23;20014;-83
2023/03/14 06:37:09;;;;;;;11.47;3.43;;;8.80;99.90;;;;;;6069956;23;20018;-84
2023/03/14 06:39:47;;;;;;;11.63;3.60;;;7.90;99.90;;;;;;6111923;23;20319;-84
2023/03/14 06:42:19;;;;;;;13.53;4.20;;;9.70;99.90;;;;;;6155656;23;20096;-84
2023/03/14 06:44:45;;;;;;;14.30;4.00;;;10.10;99.90;;;;;;6131252;23;20021;-84
2023/03/14 06:47:28;;;;;;;14.27;3.80;;;10.40;99.90;;;;;;6141185;23;20017;-84
2023/03/14 06:49:57;;;;;;;15.48;4.30;;;9.50;99.90;;;;;;6130261;23;20096;-84
2023/03/14 06:52:29;;;;;;;14.57;3.93;;;10.00;99.90;;;;;;6161741;23;20025;-84
2023/03/14 06:55:04;;;;;;;15.87;4.10;;;8.70;99.90;;;;;;6165754;23;20030;-84
2023/03/14 06:57:45;;;;;;;14.10;4.13;;;8.70;99.90;;;;;;6157486;23;20120;-84
2023/03/14 07:00:20;;;;;;;18.57;4.63;;;7.60;99.90;;;;;;6131071;23;20017;-82
2023/03/14 08:18:57;;;;;;;6.57;1.50;;;5.80;99.90;;;;;;6165288;23;20036;-90
2023/03/14 08:21:46;;;;;;;8.73;1.30;;;5.10;99.90;;;;;;6159511;23;20467;-88
2023/03/14 08:24:12;;;;;;;6.70;1.73;;;4.90;99.90;;;;;;6138032;23;20013;-89
2023/03/14 08:26:37;;;;;;;7.23;1.47;;;4.60;99.90;;;;;;6144131;23;20025;-89
2023/03/14 08:29:12;;;;;;;7.23;1.50;;;4.40;99.90;;;;;;6133934;23;20018;-90
2023/03/14 08:31:41;;;;;;;8.20;1.60;;;6.30;99.90;;;;;;6130626;23;20083;-90
2023/03/14 08:34:57;;;;;;;5.50;1.33;;;4.40;99.90;;;;;;6155617;23;20394;-90
2023/03/14 08:37:51;;;;;;;3.40;1.10;;;3.70;99.90;;;;;;6129791;23;20472;-90
2023/03/14 08:47:45;;;;;;;2.63;0.93;;;3.90;99.90;;;;;;6148657;23;19924;-88
2023/03/14 08:50:11;;;;;;;5.63;1.30;;;3.80;99.90;;;;;;6070239;23;20026;-87
2023/03/14 08:52:40;;;;;;;2.53;1.07;;;4.50;99.90;;;;;;6069800;23;20356;-87
2023/03/14 08:55:32;;;;;;;1.73;0.80;;;3.80;99.90;;;;;;6098583;23;20023;-89
2023/03/14 08:58:12;;;;;;;3.00;1.07;;;2.40;99.90;;;;;;6156066;23;20024;-89
2023/03/14 09:00:49;;;;;;;3.43;1.20;;;3.90;99.90;;;;;;6104907;23;20068;-89
2023/03/14 09:03:25;;;;;;;6.07;1.30;;;3.80;99.90;;;;;;6130471;23;20053;-88
2023/03/14 09:05:53;;;;;;;3.83;1.30;;;3.70;99.90;;;;;;6131752;23;20021;-88
2023/03/14 09:08:34;;;;;;;3.47;1.30;;;5.00;99.90;;;;;;6156751;23;20013;-89
2023/03/14 09:11:18;;;;;;;3.57;1.20;;;5.60;99.90;;;;;;6182915;23;20010;-88
2023/03/14 09:14:02;;;;;;;;;;;3.70;99.90;;;;;;6153496;23;20021;-89
2023/03/14 09:26:03;;;;;;;8.43;1.60;;;4.50;99.90;;;;;;6154725;23;20490;-87
2023/03/14 09:28:50;;;;;;;6.17;1.57;;;4.20;99.90;;;;;;6128458;23;20025;-87
2023/03/14 09:31:32;;;;;;;6.80;1.50;;;4.70;99.90;;;;;;6129052;23;20046;-87
2023/03/14 09:34:10;;;;;;;7.90;1.33;;;3.40;99.90;;;;;;6129625;23;20017;-87
2023/03/14 09:40:23;;;;;;;8.40;1.60;;;4.10;99.90;;;;;;6156135;23;20068;-87
2023/03/14 09:42:54;;;;;;;7.38;1.42;;;6.10;99.90;;;;;;6131651;23;20021;-87
2023/03/14 09:45:36;;;;;;;7.37;1.30;;;4.30;99.90;;;;;;6148945;23;20014;-88
2023/03/14 09:48:04;;;;;;;8.60;1.67;;;4.60;99.90;;;;;;6129460;23;20033;-87
2023/03/14 09:50:43;;;;;;;11.63;1.73;;;4.70;99.90;;;;;;6155169;23;20013;-87
2023/03/14 09:53:20;;;;;;;10.07;1.70;;;6.20;99.90;;;;;;6155272;23;20008;-87
2023/03/14 09:55:49;;;;;;;9.23;2.30;;;4.80;99.90;;;;;;6129735;23;20017;-86
2023/03/14 09:58:22;;;;;;;9.40;1.80;;;5.40;99.90;;;;;;6129470;23;20071;-86
2023/03/14 10:00:57;;;;;;;12.27;2.03;;;5.30;99.90;;;;;;6132948;23;20470;-87
2023/03/14 10:03:31;;;;;;;11.53;2.10;;;6.50;99.90;;;;;;6155345;23;20103;-88
2023/03/14 10:05:57;;;;;;;9.60;2.17;;;5.20;99.90;;;;;;6129402;23;20018;-83
2023/03/14 10:08:23;;;;;;;16.10;2.40;;;5.70;99.90;;;;;;6132388;23;20028;-86
2023/03/14 10:10:55;;;;;;;15.17;2.63;;;4.90;99.90;;;;;;6127630;23;20406;-86
2023/03/14 10:14:19;;;;;;;13.07;2.03;;;6.00;99.90;;;;;;6127803;23;20025;-85
2023/03/14 10:16:46;;;;;;;13.80;2.30;;;5.60;99.90;;;;;;6127480;23;20395;-88
2023/03/14 10:19:20;;;;;;;12.53;2.20;;;6.40;99.90;;;;;;6152683;23;20025;-88
2023/03/14 10:32:04;;;;;;;13.80;2.90;;;5.70;99.90;;;;;;6155632;23;20025;-88
2023/03/14 10:35:29;;;;;;;14.73;3.10;;;5.50;99.90;;;;;;6109183;23;20025;-88
2023/03/14 10:38:27;;;;;;;18.23;3.10;;;5.50;99.90;;;;;;6129964;23;20049;-88
2023/03/14 10:41:18;;;;;;;19.03;3.83;;;6.10;99.90;;;;;;6129635;23;20021;-88
2023/03/14 10:49:06;;;;;;;19.97;2.73;;;4.40;99.90;;;;;;6167052;23;20021;-87
2023/03/14 10:55:11;;;;;;;15.93;3.20;;;5.00;99.90;;;;;;6130436;23;20021;-88
2023/03/14 10:57:42;;;;;;;14.80;2.73;;;5.90;99.90;;;;;;6156598;23;20018;-87
2023/03/14 11:00:33;;;;;;;16.73;3.00;;;5.90;99.90;;;;;;6156635;23;20021;-86
2023/03/14 11:03:13;;;;;;;17.07;2.80;;;6.00;99.90;;;;;;6131158;23;20312;-88
2023/03/14 11:06:05;;;;;;;18.80;2.93;;;7.50;99.90;;;;;;6129622;23;20048;-85
2023/03/14 11:09:07;;;;;;;20.40;2.80;;;5.80;99.90;;;;;;6128981;23;20022;-85
2023/03/14 11:11:32;;;;;;;18.07;2.37;;;5.90;99.90;;;;;;6129974;23;20023;-84
2023/03/14 11:14:34;;;;;;;18.73;3.50;;;7.30;99.90;;;;;;6157540;23;20088;-86
2023/03/14 11:17:35;;;;;;;16.53;3.40;;;5.90;99.90;;;;;;6085584;23;20022;-86
2023/03/14 11:20:36;;;;;;;17.80;3.40;;;6.80;99.90;;;;;;6130153;23;20017;-87
2023/03/14 11:27:13;;;;;;;16.20;3.10;;;5.90;99.90;;;;;;6157415;23;20091;-85
2023/03/14 11:29:41;;;;;;;16.93;3.13;;;6.10;99.90;;;;;;6154956;23;20014;-85
2023/03/14 11:32:43;;;;;;;17.20;2.70;;;5.90;99.90;;;;;;6154918;23;20048;-85
2023/03/14 11:35:24;;;;;;;16.57;3.17;;;6.20;99.90;;;;;;6153676;23;20488;-86
2023/03/14 11:37:59;;;;;;;15.83;2.47;;;6.40;99.90;;;;;;6152891;23;20021;-85
2023/03/14 11:43:53;;;;;;;13.10;2.20;;;6.50;99.90;;;;;;6153289;23;20025;-86
2023/03/14 12:06:13;;;;;;;;;;;;;;;;;;;;;
2023/03/14 12:09:57;;;;;;;12.20;2.40;;;5.60;99.90;;;;;;6086701;23;20029;-88
2023/03/14 12:12:36;;;;;;;8.27;1.80;;;6.90;99.90;;;;;;6132827;23;20025;-88
2023/03/14 12:15:39;;;;;;;12.17;2.53;;;7.50;99.90;;;;;;6158380;23;20013;-87
2023/03/14 12:18:25;;;;;;;12.10;2.17;;;6.70;99.90;;;;;;6158611;23;20020;-88
2023/03/14 12:20:54;;;;;;;9.33;1.90;;;9.00;99.90;;;;;;6142308;23;20390;-89
2023/03/14 12:23:28;;;;;;;10.00;1.83;;;6.50;99.90;;;;;;6131414;23;20026;-87
2023/03/14 12:26:25;;;;;;;6.70;1.80;;;6.30;99.90;;;;;;6129553;23;20395;-91
2023/03/14 12:29:38;;;;;;;12.00;2.13;;;6.30;99.90;;;;;;6130115;23;20018;-88
2023/03/14 12:32:24;;;;;;;8.30;1.80;;;6.70;99.90;;;;;;6129450;23;20342;-88
2023/03/14 12:35:30;;;;;;;9.67;2.00;;;7.60;99.90;;;;;;6128915;23;20028;-88
2023/03/14 12:38:33;;;;;;;8.37;1.83;;;7.70;99.90;;;;;;6128086;23;20072;-88
2023/03/14 12:41:03;;;;;;;14.83;2.07;;;7.20;99.90;;;;;;6126582;23;20018;-90
2023/03/14 12:47:19;;;;;;;7.90;1.65;;;7.50;99.90;;;;;;6160724;23;20029;-90
2023/03/14 12:49:48;;;;;;;10.67;1.90;;;8.00;99.90;;;;;;6155605;23;20021;-91
2023/03/14 12:52:27;;;;;;;6.37;1.50;;;8.40;99.90;;;;;;6165199;23;20045;-90
2023/03/14 12:55:26;;;;;;;7.83;1.63;;;9.10;99.90;;;;;;6156932;23;20017;-90
2023/03/14 13:01:17;;;;;;;12.10;2.10;;;8.00;99.90;;;;;;6163758;23;20033;-90
2023/03/14 13:04:14;;;;;;;9.10;2.20;;;9.60;99.90;;;;;;6171083;23;20022;-90
2023/03/14 13:07:00;;;;;;;10.93;2.20;;;8.50;99.90;;;;;;6129127;23;20151;-90
2023/03/14 13:10:24;;;;;;;7.50;1.97;;;9.20;99.90;;;;;;6130140;23;20013;-90
2023/03/14 13:24:28;;;;;;;9.45;2.05;;;8.10;99.90;;;;;;6158646;23;20024;-87
2023/03/14 13:34:25;;;;;;;10.13;1.80;;;8.50;99.90;;;;;;6154775;23;20108;-91
2023/03/14 13:43:43;;;;;;;7.50;1.70;;;7.30;99.90;;;;;;6153810;23;20022;-89
2023/03/14 13:46:48;;;;;;;9.83;1.77;;;7.20;99.90;;;;;;6069113;23;20029;-89
2023/03/14 13:49:28;;;;;;;7.00;1.60;;;7.30;99.90;;;;;;6091968;23;20090;-90
2023/03/14 13:56:06;;;;;;;7.60;1.40;;;7.60;99.90;;;;;;5955078;23;20577;-90
2023/03/14 13:58:51;;;;;;;6.00;1.60;;;6.90;99.90;;;;;;5987985;23;20338;-90
2023/03/14 14:07:49;;;;;;;9.73;1.80;;;7.30;99.90;;;;;;6154933;23;20026;-89
2023/03/14 14:11:04;;;;;;;8.73;1.80;;;8.90;99.90;;;;;;6130107;23;20036;-88
2023/03/14 14:17:41;;;;;;;7.33;2.00;;;7.60;99.90;;;;;;5986976;23;20508;-89
2023/03/14 14:20:31;;;;;;;10.13;2.10;;;7.50;99.90;;;;;;6025231;23;20031;-88
2023/03/14 14:23:53;;;;;;;7.83;1.53;;;8.20;99.90;;;;;;6022304;23;20024;-87
2023/03/14 14:26:26;;;;;;;8.30;1.53;;;7.00;99.90;;;;;;6010230;23;20023;-89
2023/03/14 14:29:45;;;;;;;6.30;1.60;;;7.10;99.90;;;;;;6010650;23;20059;-89
2023/03/14 14:32:17;;;;;;;6.50;1.57;;;6.90;99.90;;;;;;6034349;23;20082;-88
2023/03/14 14:35:00;;;;;;;6.70;1.73;;;6.00;99.90;;;;;;6133421;23;20431;-90
2023/03/14 14:37:55;;;;;;;7.00;1.63;;;7.70;99.90;;;;;;6131380;23;20100;-90
2023/03/14 14:40:28;;;;;;;6.38;1.58;;;6.70;99.90;;;;;;6129732;23;20461;-87
2023/03/14 14:43:04;;;;;;;10.50;2.38;;;8.00;99.90;;;;;;6130936;23;20600;-86
2023/03/14 14:45:50;;;;;;;6.43;1.57;;;8.60;99.90;;;;;;6129210;23;20339;-89
2023/03/14 14:48:37;;;;;;;8.13;1.53;;;8.00;99.90;;;;;;6157134;23;20417;-91
2023/03/14 14:58:50;;;;;;;9.90;2.87;;;7.40;99.90;;;;;;6156742;23;20026;-90
2023/03/14 15:04:41;;;;;;;6.97;1.80;;;7.40;99.90;;;;;;6129360;23;20032;-90
2023/03/14 15:07:25;;;;;;;11.07;2.73;;;7.70;99.90;;;;;;6155926;23;20010;-88
2023/03/14 15:09:51;;;;;;;8.45;1.88;;;8.40;99.90;;;;;;6130625;23;20025;-89
2023/03/14 15:12:17;;;;;;;7.70;1.93;;;6.80;99.90;;;;;;6130720;23;20018;-89
2023/03/14 15:14:43;;;;;;;10.53;2.40;;;7.00;99.90;;;;;;6147248;23;20060;-89
2023/03/14 15:19:52;;;;;;;5.80;1.50;;;6.80;99.90;;;;;;6180338;23;20009;-90
2023/03/14 15:22:25;;;;;;;13.90;4.07;;;7.10;99.90;;;;;;6170014;23;20370;-89
2023/03/14 15:24:53;;;;;;;10.30;2.67;;;6.90;99.90;;;;;;6134186;23;20017;-93
2023/03/14 15:27:49;;;;;;;12.40;2.67;;;7.70;99.90;;;;;;6092650;23;20501;-92
2023/03/14 15:30:30;;;;;;;10.17;2.10;;;6.80;99.90;;;;;;6136438;23;20017;-92
2023/03/14 15:33:01;;;;;;;9.93;1.90;;;5.70;99.90;;;;;;6138179;23;20017;-92
2023/03/14 15:35:41;;;;;;;9.70;1.80;;;7.00;99.90;;;;;;6135353;23;20072;-92
2023/03/14 15:38:24;;;;;;;9.97;2.20;;;9.00;99.90;;;;;;6157516;23;20028;-86
2023/03/14 15:46:56;;;;;;;9.80;2.30;;;7.50;99.90;;;;;;6157783;23;20032;-91
2023/03/14 15:49:58;;;;;;;;;;;;;;;;;;;;;
2023/03/14 15:52:55;;;;;;;10.80;2.03;;;7.20;99.90;;;;;;6056801;23;20016;-92
2023/03/14 16:01:52;;;;;;;8.53;2.07;;;8.10;99.90;;;;;;6148179;23;20044;-91
2023/03/14 16:04:27;;;;;;;10.03;1.70;;;9.30;99.90;;;;;;6131799;23;20425;-92
2023/03/14 16:07:16;;;;;;;8.43;2.03;;;7.50;99.90;;;;;;6154954;23;20014;-86
2023/03/14 16:16:24;;;;;;;8.70;1.93;;;7.00;99.90;;;;;;6154418;23;20335;-89
2023/03/14 16:18:49;;;;;;;9.97;2.20;;;8.80;99.90;;;;;;6127989;23;20362;-89
2023/03/14 16:21:27;;;;;;;8.03;1.60;;;8.10;99.90;;;;;;6155708;23;20076;-85
2023/03/14 16:23:56;;;;;;;6.57;1.60;;;7.00;99.90;;;;;;6136261;23;20430;-87
2023/03/14 16:26:36;;;;;;;10.17;2.00;;;8.30;99.90;;;;;;6137183;23;20055;-88
2023/03/14 16:29:02;;;;;;;7.50;1.87;;;6.40;99.90;;;;;;6157069;23;20009;-86
2023/03/14 16:31:50;;;;;;;7.23;1.70;;;5.90;99.90;;;;;;6155331;23;20098;-86
2023/03/14 16:34:15;;;;;;;11.10;4.67;;;5.40;99.90;;;;;;6066968;23;20013;-87
2023/03/14 16:36:41;;;;;;;13.73;4.03;;;7.10;99.90;;;;;;6130056;23;20021;-86
2023/03/14 16:39:10;;;;;;;13.27;3.03;;;5.90;99.90;;;;;;6129100;23;20014;-89
2023/03/14 16:41:41;;;;;;;14.40;2.67;;;6.10;99.90;;;;;;6155723;23;20088;-88
2023/03/14 16:44:16;;;;;;;11.03;3.13;;;5.90;99.90;;;;;;6130178;23;20013;-88
2023/03/14 16:46:54;;;;;;;21.73;9.30;;;5.40;99.90;;;;;;6155126;23;20017;-89
2023/03/14 16:50:11;;;;;;;10.13;2.43;;;5.50;99.90;;;;;;6156171;23;20022;-89
2023/03/14 16:53:50;;;;;;;19.63;8.13;;;5.50;99.90;;;;;;6090052;23;20040;-89
2023/03/14 16:56:25;;;;;;;15.67;6.37;;;5.30;99.90;;;;;;6153732;23;20028;-90
2023/03/14 16:59:19;;;;;;;21.47;8.27;;;5.30;99.90;;;;;;6123237;23;20024;-86
2023/03/14 17:04:24;;;;;;;11.57;3.00;;;5.20;99.90;;;;;;6151934;23;20032;-89
2023/03/14 17:07:58;;;;;;;11.03;3.03;;;5.20;99.90;;;;;;6153448;23;20021;-90
2023/03/14 17:11:20;;;;;;;10.83;2.70;;;4.20;99.90;;;;;;6156476;23;20096;-87
2023/03/14 17:13:45;;;;;;;11.00;2.80;;;3.70;99.90;;;;;;6151134;23;20017;-86
2023/03/14 17:16:51;;;;;;;10.20;2.50;;;6.00;99.90;;;;;;6131284;23;20022;-87
2023/03/14 17:19:20;;;;;;;10.77;3.40;;;4.80;99.90;;;;;;6204828;23;20040;-86
2023/03/14 17:21:46;;;;;;;12.73;3.53;;;5.30;99.90;;;;;;6229931;23;20016;-86
2023/03/14 17:24:26;;;;;;;10.73;3.43;;;4.20;99.90;;;;;;6215874;23;20016;-87
2023/03/14 17:34:00;;;;;;;8.37;1.90;;;3.70;99.90;;;;;;6154055;23;20029;-86
2023/03/14 17:37:20;;;;;;;12.85;4.90;;;3.20;99.90;;;;;;6128645;23;20013;-86
2023/03/14 17:40:40;;;;;;;8.77;1.60;;;4.20;99.90;;;;;;6128143;23;20017;-86
2023/03/14 17:46:58;;;;;;;9.53;1.97;;;2.70;99.90;;;;;;6154605;23;20100;-87
2023/03/14 17:49:40;;;;;;;7.00;1.80;;;3.30;99.90;;;;;;6068708;23;20018;-87
2023/03/14 17:52:24;;;;;;;12.43;5.23;;;2.40;99.90;;;;;;6093333;23;20022;-86
2023/03/14 17:57:39;;;;;;;9.90;2.50;;;3.00;99.90;;;;;;6150728;23;20025;-84
2023/03/14 18:11:26;;;;;;;11.83;3.03;;;3.70;99.90;;;;;;6128869;23;20018;-83
2023/03/14 18:14:10;;;;;;;;;;;;;;;;;;;;;
2023/03/14 18:16:48;;;;;;;13.07;2.67;;;3.00;99.90;;;;;;6067786;23;20003;-83
2023/03/14 18:19:20;;;;;;;12.53;3.20;;;2.40;99.90;;;;;;6076066;23;20090;-84
2023/03/14 18:22:00;;;;;;;9.97;2.73;;;2.70;99.90;;;;;;6130894;23;20504;-83
2023/03/14 18:24:26;;;;;;;9.20;2.30;;;3.60;99.90;;;;;;6128103;23;20018;-83
2023/03/14 18:27:22;;;;;;;13.63;3.63;;;2.80;99.90;;;;;;6155479;23;20076;-84
2023/03/14 18:30:50;;;;;;;;;;;;;;;;;;;;;
2023/03/14 18:33:40;;;;;;;12.73;2.50;;;2.70;99.90;;;;;;6147399;23;20033;-83
2023/03/14 18:36:40;;;;;;;12.43;2.60;;;4.10;99.90;;;;;;6154913;23;20448;-83
2023/03/14 18:39:21;;;;;;;13.27;2.63;;;2.70;99.90;;;;;;6127740;23;20026;-84
2023/03/14 18:41:47;;;;;;;11.93;2.60;;;2.90;99.90;;;;;;6161058;23;20028;-84
2023/03/14 19:04:10;;;;;;;8.90;2.00;;;2.70;99.90;;;;;;6142326;23;20036;-84
2023/03/14 19:07:28;;;;;;;8.70;1.90;;;2.50;99.90;;;;;;6155511;23;20493;-85
2023/03/14 19:10:20;;;;;;;8.90;2.03;;;2.50;99.90;;;;;;6128844;23;20017;-85
2023/03/14 19:16:58;;;;;;;9.13;2.17;;;2.40;99.90;;;;;;6094605;23;20021;-85
2023/03/14 19:35:58;;;;;;;15.03;2.40;;;2.40;99.90;;;;;;6124623;23;20026;-84
2023/03/14 19:38:24;;;;;;;10.60;2.13;;;3.40;99.90;;;;;;6099535;23;20022;-84
2023/03/14 19:44:05;;;;;;;10.63;2.50;;;2.60;99.90;;;;;;6128203;23;20068;-84
2023/03/14 19:46:40;;;;;;;9.07;1.90;;;1.70;99.90;;;;;;6129751;23;20346;-83
2023/03/14 19:49:27;;;;;;;9.60;2.10;;;2.40;99.90;;;;;;6154349;23;20459;-84
2023/03/14 19:55:59;;;;;;;9.17;2.17;;;1.80;99.90;;;;;;6035707;23;20027;-84
2023/03/14 20:01:20;;;;;;;13.93;2.50;;;1.60;99.90;;;;;;6149410;23;20480;-84
2023/03/14 20:04:26;;;;;;;10.20;2.97;;;3.50;99.90;;;;;;6154264;23;20056;-84
2023/03/14 20:13:38;;;;;;;11.37;3.13;;;1.50;99.90;;;;;;6130963;23;20025;-84
2023/03/14 20:16:58;;;;;;;14.70;3.20;;;1.40;99.90;;;;;;6139892;23;20097;-84
2023/03/14 20:24:17;;;;;;;13.40;2.90;;;1.50;99.90;;;;;;6141394;23;20036;-84
2023/03/14 20:26:20;;;;;;;16.07;3.30;;;1.60;99.90;;;;;;6117212;23;20446;-84
2023/03/14 20:29:38;;;;;;;14.13;2.80;;;2.90;99.90;;;;;;6129120;23;20032;-83
2023/03/14 20:35:59;;;;;;;18.83;3.45;;;0.90;99.90;;;;;;6142720;23;20022;-83
2023/03/14 20:38:26;;;;;;;12.27;2.77;;;1.80;99.90;;;;;;6154489;23;20018;-83
2023/03/14 20:40:59;;;;;;;10.77;2.47;;;1.60;99.90;;;;;;6122557;23;20017;-84
2023/03/14 20:43:25;;;;;;;14.65;2.63;;;2.80;99.90;;;;;;6155953;23;20022;-83
2023/03/14 20:49:24;;;;;;;11.77;2.50;;;2.30;99.90;;;;;;6037655;23;20023;-84
2023/03/14 21:02:58;;;;;;;12.00;2.70;;;1.10;99.90;;;;;;6014045;23;20014;-83
2023/03/14 21:05:41;;;;;;;10.83;2.60;;;3.30;99.90;;;;;;5983780;23;20030;-84